Flight Track Log - Related Links

Times and Time Zones

All times are in EDT time to prevent confusion due to time zone crossing. See the N43755 flight status page for this flight to view local times or setup timezone preferences in your user account.

Time Position Orientation Groundspeed Altitude Reporting Facility
EDT Latitude Longitude Course Direction KTS MPH feet Rate Location/Type
Mon 09:36:31 AM 43.4222 -83.8769 347° North 114 131 6,400  Level Minneapolis Center
Mon 09:37:33 AM 43.4525 -83.8864 347° North 114 131 6,400  Level Minneapolis Center
Mon 09:38:35 AM 43.4894 -83.9017 343° North 114 131 6,400  Level Minneapolis Center
Mon 09:39:49 AM 43.5281 -83.9153 346° North 116 133 6,400 44 Level Minneapolis Center
Mon 09:40:51 AM 43.5619 -83.9208 353° North 118 136 6,500 48 Climbing Minneapolis Center
Mon 09:41:53 AM 43.5972 -83.9217 359° North 118 136 6,500  Level Minneapolis Center
Mon 09:42:55 AM 43.6081 -84.0561 276° West 304 350 6,500  Level Minneapolis Center
Mon 09:43:57 AM 43.6064 -84.0472 105° East 214 246 6,500 -14 Level Minneapolis Center
Mon 09:45:00 AM 43.6441 -84.0567 350° North  Level Estimated
Mon 09:50:09 AM 43.8508 -83.9950 350° North 148 170 6,400  Level Minneapolis Center
Mon 09:51:11 AM 43.8817 -84.0033 349° North 116 133 6,400  Level Minneapolis Center
Mon 09:52:00 AM 43.8956 -84.1202 350° North  Level Estimated
Mon 09:52:25 AM 43.9169 -84.0192 342° North 114 131 6,400  Level Minneapolis Center
Mon 09:53:00 AM 43.9315 -84.1293 350° North  Level Estimated
Mon 09:53:27 AM 43.9539 -84.0322 346° North 112 129 6,400  Level Minneapolis Center
Mon 09:54:00 AM 43.9674 -84.1384 350° North  Level Estimated
Mon 09:54:29 AM 43.9853 -84.0394 351° North 114 131 6,400  Level Minneapolis Center
Mon 09:55:00 AM 44.0034 -84.1476 350° North  Level Estimated
Mon 09:55:31 AM 44.0189 -84.0511 346° North 116 133 6,400  Level Minneapolis Center
Mon 09:56:33 AM 44.0531 -84.0592 350° North 117 135 6,400  Level Minneapolis Center
Mon 09:57:35 AM 44.0844 -84.0669 350° North 116 133 6,400 48 Level Minneapolis Center
Mon 09:58:37 AM 44.1183 -84.0781 347° North 117 135 6,500 48 Climbing Minneapolis Center
Mon 09:59:39 AM 44.1500 -84.0875 348° North 116 133 6,500  Level Minneapolis Center
Mon 10:00:41 AM 44.1847 -84.0994 346° North 120 138 6,500  Level Minneapolis Center
Mon 10:01:43 AM 44.2167 -84.1072 350° North 118 136 6,500  Level Minneapolis Center
Mon 10:02:45 AM 44.2492 -84.1178 347° North 113 130 6,500  Level Minneapolis Center
Mon 10:03:47 AM 44.2803 -84.1275 347° North 116 133 6,500 -48 Level Minneapolis Center
Mon 10:04:49 AM 44.3139 -84.1361 350° North 114 131 6,400  Descending Minneapolis Center
Mon 10:05:51 AM 44.3450 -84.1442 350° North 115 132 6,500  Climbing Minneapolis Center
Mon 10:06:54 AM 44.3775 -84.1547 347° North 112 129 6,400 -48 Descending Minneapolis Center
Mon 10:07:56 AM 44.4094 -84.1603 353° North 116 133 6,400  Level Minneapolis Center
Mon 10:08:58 AM 44.4428 -84.1686 350° North 114 131 6,400  Level Minneapolis Center
Mon 10:10:00 AM 44.4744 -84.1775 349° North 116 133 6,400 -48 Level Minneapolis Center
Mon 10:11:02 AM 44.5086 -84.1883 347° North 117 135 6,300  Descending Minneapolis Center
Mon 10:12:04 AM 44.5411 -84.1992 347° North 114 131 6,400 48 Climbing Minneapolis Center
Mon 10:13:06 AM 44.5717 -84.2086 348° North 113 130 6,400  Level Minneapolis Center
Mon 10:14:08 AM 44.6056 -84.2178 349° North 115 132 6,400  Level Minneapolis Center
Mon 10:15:10 AM 44.6361 -84.2278 347° North 115 132 6,400  Level Minneapolis Center
Mon 10:16:12 AM 44.6706 -84.2392 347° North 117 135 6,400 -48 Level Minneapolis Center
Mon 10:17:14 AM 44.7019 -84.2472 350° North 117 135 6,300  Descending Minneapolis Center
Mon 10:18:17 AM 44.7353 -84.2611 344° North 117 135 6,400 48 Climbing Minneapolis Center
Mon 10:19:19 AM 44.7658 -84.2717 346° North 115 132 6,400  Level Minneapolis Center
Mon 10:20:21 AM 44.8000 -84.2817 348° North 117 135 6,400  Level Minneapolis Center
Mon 10:21:23 AM 44.8317 -84.2919 347° North 119 137 6,400  Level Minneapolis Center
Mon 10:22:25 AM 44.8653 -84.3031 347° North 116 133 6,400  Level Minneapolis Center
Mon 10:23:27 AM 44.8997 -84.3133 348° North 118 136 6,400  Level Minneapolis Center
Mon 10:24:29 AM 44.9317 -84.3242 346° North 120 138 6,400  Level Minneapolis Center
Mon 10:25:31 AM 44.9653 -84.3364 346° North 117 135 6,400  Level Minneapolis Center
Mon 10:26:33 AM 44.9969 -84.3456 348° North 117 135 6,400  Level Minneapolis Center
Mon 10:27:35 AM 45.0314 -84.3572 347° North 118 136 6,400  Level Minneapolis Center
Mon 10:28:37 AM 45.0633 -84.3672 348° North 118 136 6,400  Level Minneapolis Center
Mon 10:29:39 AM 45.0975 -84.3792 346° North 119 137 6,400  Level Minneapolis Center
Mon 10:30:41 AM 45.1297 -84.3908 346° North 120 138 6,400  Level Minneapolis Center
Mon 10:31:43 AM 45.1639 -84.4039 345° North 119 137 6,400  Level Minneapolis Center
Mon 10:32:57 AM 45.1961 -84.4147 347° North 120 138 6,400  Level Minneapolis Center
Mon 10:34:00 AM 45.2347 -84.4306 344° North 118 136 6,400  Level Minneapolis Center
Mon 10:35:02 AM 45.2697 -84.4419 347° North 119 137 6,400  Level Minneapolis Center
Mon 10:36:04 AM 45.3014 -84.4533 346° North 119 137 6,400  Level Minneapolis Center
Mon 10:37:06 AM 45.3356 -84.4650 347° North 118 136 6,400  Level Minneapolis Center
Mon 10:38:08 AM 45.3672 -84.4767 345° North 118 136 6,400  Level Minneapolis Center
Mon 10:39:10 AM 45.4028 -84.4869 349° North 121 139 6,400  Level Minneapolis Center
Mon 10:40:12 AM 45.4383 -84.4956 350° North 121 139 6,400  Level Minneapolis Center
Mon 10:41:14 AM 45.4706 -84.5047 349° North 119 137 6,400  Level Minneapolis Center
Mon 10:42:16 AM 45.5056 -84.5167 347° North 121 139 6,400  Level Minneapolis Center
Mon 10:43:31 AM 45.5469 -84.5267 350° North 121 139 6,400  Level Minneapolis Center
Mon 10:45:00 AM 45.6056 -84.5538 342° North  Level FlightAware Approximate
Mon 10:52:00 AM 45.8500 -84.6333 341° North  Level FlightAware Approximate
Mon 10:53:00 AM 45.8650 -84.6371 341° North  Level Estimated
Mon 10:54:00 AM 45.8650 -84.6371 341° North  Level Estimated
Mon 10:55:00 AM 45.8650 -84.6371 341° North  Level Estimated
Mon 10:56:00 AM 45.8650 -84.6371 341° North  Level Estimated
Mon 10:57:00 AM 45.8650 -84.6371 341° North  Level Estimated

Login

Don't have an account? Register now (free) for customized features, flight alerts, and more!